Terminal Aerodrome Forecast
Issued by NWS Green Bay, WI

Home | Current Version | Previous Version | Graphics & Text | Print | Product List | Glossary On
Versions: 1 2 3 4 5 6 7 8 9 10 11 12 13 14 15 16 17 18 19 20 21 22 23 24 25 26 27 28 29 30 31 32 33 34 35 36
000
FTUS43 KGRB 232200 AAA
TAFGRB
TAF AMD
KGRB 232204Z 2322/2418 23011KT P6SM SCT040 BKN060 WS017/25040KT
      TEMPO 2322/2324 2SM -SNPL BKN025 OVC060
     FM240000 26007KT P6SM SCT050 SCT100
     FM240500 29007KT P6SM BKN025=

USA.gov is the U.S. government's official web portal to all federal, state and local government web resources and services.